Tiempo atmosférico en la estación meteorológica de Benavente, Zamora (715 m.)

Fecha
DESCASC
Temp. máxima en grados centígrados (hora)
DESCASC
Temp. mínima en grados centígrados (hora)
DESCASC
Temp. media en grados centígrados
DESCASC
Racha de viento máxima en m/sg (hora)
DESCASC
Velocidad máxima media en intervalos de 10 minutos(hora)
DESCASC
Precipitaciones diarias en mm
DESCASC
Precipitaciones de 00:00 a 06:00 en mm
DESCASC
Precipitaciones de 06:00 a 12:00 en mm
DESCASC
Precipitaciones de 12:00 a 18:00 en mm
DESCASC
Precipitaciones de 18:00 a 24:00 en mm
DESCASC
22-10-2017 16.3 (16:40) 3.2 (08:50) 9.7 8.89 (01:10) 4.17 (00:20) 0 0 0 0 0
21-10-2017 18.2 (14:50) 9.2 (23:20) 13.7 11.11 (18:20) 5.28 (19:00) 0 0 0 0 0
20-10-2017 22.5 (16:10) 8.7 (08:50) 15.6 10.83 (18:10) 5 (17:40) 0 0 0 0 0
19-10-2017 15.8 (15:00) 3.3 (00:00) 9.6 8.06 (18:40) 4.17 (16:50) 0 0 0 0 0
18-10-2017 17 (16:10) 9.1 (00:00) 13.1 13.33 (16:30) 6.11 (16:30) 2.8 0.4 1.4 1 0
17-10-2017 18.9 (00:50) 12.3 (00:00) 15.6 11.11 (14:20) 4.72 (14:10) 2.2 0.2 1.6 0.4 0
16-10-2017 25.6 (14:00) 10.7 (00:00) 18.2 14.44 (19:50) 6.67 (19:40) 0 0 0 0 0
15-10-2017 30.6 (17:00) 13.4 (00:00) 22 12.78 (18:30) 6.11 (18:10) 0 0 0 0 0
14-10-2017 28.2 (17:50) 6.9 (00:00) 17.6 5.56 (17:10) 3.06 (21:00) 0 0 0 0 0
13-10-2017 27.1 (17:00) 7.1 (00:00) 17.1 6.11 (17:10) 2.78 (18:00) 0 0 0 0 0
12-10-2017 27.8 (17:20) 4.7 (00:00) 16.2 4.44 (17:10) 2.22 (16:50) 0 0 0 0 0
11-10-2017 26.9 (17:10) 4.7 (00:00) 15.8 6.11 (16:10) 3.06 (16:00) 0 0 0 0 0
10-10-2017 27.1 (17:00) 6.1 (00:00) 16.6 5.56 (09:00) 2.22 (18:20) 0 0 0 0 0
09-10-2017 26.6 (16:50) 5.9 (00:00) 16.3 5 (11:20) 2.78 (11:20) 0 0 0 0 0
08-10-2017 27.5 (17:10) 5.4 (00:00) 16.5 6.67 (23:30) 3.33 (23:30) 0 0 0 0 0
07-10-2017 26.4 (17:30) 5.8 (00:00) 16.1 7.78 (13:50) 3.33 (13:50) 0 0 0 0 0
06-10-2017 26.6 (17:50) 8.9 (00:00) 17.8 8.33 (20:20) 3.33 (23:20) 0 0 0 0 0
05-10-2017 31.6 (17:20) 10.8 (00:00) 21.2 10.28 (22:00) 5 (22:00) 0 0 0 0 0
04-10-2017 29.4 (17:30) 12.3 (00:00) 20.8 6.94 (01:50) 3.33 (01:50) 0 0 0 0 0
03-10-2017 28.4 (17:50) 12.7 (00:00) 20.5 8.06 (22:30) 4.17 (22:40) 0 0 0 0 0
02-10-2017 29 (17:10) 13.6 (00:00) 21.3 5.56 (17:40) 2.22 (14:30) 0 0 0 0 0
01-10-2017 26.4 (16:10) 11.9 (00:00) 19.1 8.33 (14:30) 3.61 (18:00) 0 0 0 0 0
30-09-2017 25.7 (17:00) 13.2 (00:00) 19.5 11.67 (21:30) 5.28 (21:20) 0 0 0 0 0
29-09-2017 28.3 (17:10) 9.7 (00:00) 19 9.44 (15:30) 4.44 (14:50) 0 0 0 0 0
28-09-2017 28.5 (17:30) 7.7 (00:00) 18.1 8.06 (15:50) 3.89 (15:30) 0 0 0 0 0
27-09-2017 28 (17:00) 6.9 (00:00) 17.5 8.33 (17:50) 3.61 (17:50) 0.1 0 0.1 0 0
26-09-2017 24.8 (17:40) 8.4 (00:00) 16.6 6.39 (11:00) 2.78 (10:20) 0 0 0 0 0
25-09-2017 24.1 (17:50) 10.3 (00:00) 17.2 7.78 (22:20) 4.17 (11:10) 0 0 0 0 0
24-09-2017 28.5 (16:30) 8.7 (00:00) 18.6 10 (16:30) 5 (16:30) 0 0 0 0 0
23-09-2017 27.7 (17:20) 10.1 (00:00) 18.9 9.72 (15:40) 3.89 (16:00) 0 0 0 0 0

Gráficas

Temp. máximas Temp. mínimas Temp. medias Precipitaciones Rachas de viento máximas Velocidades máximas media en intervalos de 10 minutos

Datos horarios

Fecha y hora oficial Temperatura (ºC) Velocidad del viento (km/h) Dirección del viento Racha (km/h) Dirección de racha Precipitación (mm) Presión (hPa) Tendencia (hPa) Humedad (%)
2017-10-22 23:00:00 6.8 4 Norte 7 Este 0 944.9 0.8 70
2017-10-22 22:00:00 8.3 0 Calma 4 Nordeste 0 944.4 0.4 65
2017-10-22 21:00:00 9.1 0 Calma 4 Norte 0 944.3 0.7 61
2017-10-22 20:00:00 11.1 0 Calma 3 Este 0 944.1 0.5 54
2017-10-22 19:00:00 14.9 2 Este 8 Norte 0 944 -0.1 40
2017-10-22 18:00:00 15.6 3 Norte 12 Nordeste 0 943.6 -0.9 37
2017-10-22 17:00:00 15.9 3 Sudeste 14 Nordeste 0 943.6 -1.9 36
2017-10-22 16:00:00 15.7 3 Nordeste 15 Sudeste 0 944.1 -1.9 37
2017-10-22 15:00:00 14.3 8 Este 23 Nordeste 0 944.5 -1.7 42
2017-10-22 14:00:00 13.6 5 Sur 19 Sudeste 0 945.5 -1 45
2017-10-22 13:00:00 12.5 6 Este 17 Nordeste 0 946 0 50
2017-10-22 12:00:00 10.7 9 Nordeste 19 Nordeste 0 946.2 0.7 55
2017-10-22 11:00:00 8.1 3 Nordeste 7 Nordeste 0 946.5 1.1 68
2017-10-22 10:00:00 4.2 4 Nordeste 11 Norte 0 946 1 80
2017-10-22 09:00:00 3.3 6 Norte 12 Norte 0 945.5 0.7 84
2017-10-22 08:00:00 3.5 8 Norte 14 Norte 0 945.4 0.7 85
2017-10-22 07:00:00 3.5 6 Nordeste 10 Nordeste 0 945 0.4 85
2017-10-22 06:00:00 3.6 5 Norte 10 Norte 0 944.8 -0.2 85
2017-10-22 05:00:00 4.1 6 Norte 12 Norte 0 944.7 -0.6 83
2017-10-22 04:00:00 4.2 6 Norte 10 Norte 0 944.6 -0.5 84
2017-10-22 03:00:00 5 5 Nordeste 11 Nordeste 0 945 0.2 82
2017-10-22 02:00:00 6.3 6 Nordeste 32 Noroeste 0 945.3 1 78
2017-10-22 01:00:00 8.5 14 Noroeste 30 Noroeste 0 945.1 1.2 70
2017-10-22 00:00:00 9.3 15 Noroeste 30 Noroeste 0 944.8 1.2 68
2017-10-21 23:00:00 9.7 13 Noroeste 24 Noroeste 0 944.3 1.2 64
2017-10-21 22:00:00 10.8 12 Noroeste 25 Noroeste 0 943.9 1.4 58
2017-10-21 21:00:00 11.5 10 Noroeste 27 Noroeste 0 943.6 1.3 55
2017-10-21 20:00:00 12.9 13 Norte 31 Norte 0 943.1 1.2 46
2017-10-21 19:00:00 14.2 19 Norte 40 Noroeste 0 942.5 1 43
2017-10-21 18:00:00 15.9 17 Norte 34 Norte 0 942.3 0.8 38
2017-10-21 17:00:00 16.5 15 Norte 30 Norte 0 941.9 0 40
2017-10-21 16:00:00 17.8 8 Oeste 22 Oeste 0 941.5 -0.8 36
2017-10-21 15:00:00 17.8 10 Oeste 23 Noroeste 0 941.5 -0.7 34
2017-10-21 14:00:00 16.8 7 Noroeste 21 Noroeste 0 941.9 -0.1 37
2017-10-21 13:00:00 15.8 10 Norte 21 Norte 0 942.3 0.9 44
2017-10-21 12:00:00 15 9 Norte 24 Noroeste 0 942.2 1.9 48
2017-10-21 11:00:00 12.4 13 Noroeste 24 Noroeste 0 942 2.5 61
2017-10-21 10:00:00 11.6 13 Noroeste 31 Noroeste 0 941.4 2.8 72
2017-10-21 09:00:00 13.5 7 Noroeste 19 Noroeste 0 940.3 2.1 75
2017-10-21 08:00:00 14.8 6 Oeste 15 Oeste 0 939.5 1.6 81
2017-10-21 07:00:00 15.2 5 Sudoeste 18 Sudoeste 0 938.6 0.8 83
2017-10-21 06:00:00 15.4 8 Sudoeste 16 Sur 0 938.2 0.1 83
2017-10-21 05:00:00 15.2 9 Sudoeste 23 Sudoeste 0 937.9 -0.2 84
2017-10-21 04:00:00 15.3 11 Sudoeste 25 Sudoeste 0 937.8 -0.4 86
2017-10-21 03:00:00 14.6 6 Sudoeste 17 Sudoeste 0 938.1 0.1 88
2017-10-21 02:00:00 14.7 6 Sur 14 Sur 0 938.1 0.2 87
2017-10-21 01:00:00 15.7 9 Sudoeste 23 Sudoeste 0 938.2 0.5 84
2017-10-21 00:00:00 16 11 Sudoeste 19 Sudoeste 0 938 0.6 84
2017-10-20 23:00:00 16.6 8 Sudoeste 18 Sudoeste 0 937.9 0.6 83
2017-10-20 22:00:00 16.9 6 Sudoeste 19 Sudoeste 0 937.7 0.9 83
2017-10-20 21:00:00 17.3 9 Sudoeste 18 Sudoeste 0 937.4 1.1 83
2017-10-20 20:00:00 17.7 8 Sudoeste 25 Sudoeste 0 937.3 1.1 82
2017-10-20 19:00:00 18.7 14 Sudoeste 39 Sudoeste 0 936.8 0.5 72
2017-10-20 18:00:00 20.7 15 Sudoeste 35 Sudoeste 0 936.3 -0.3 61
2017-10-20 17:00:00 21.6 14 Sudoeste 32 Sudoeste 0 936.2 -0.8 54
2017-10-20 16:00:00 22.1 14 Oeste 30 Oeste 0 936.3 -1.1 52
2017-10-20 15:00:00 21.4 9 Sudoeste 24 Sudoeste 0 936.6 -0.8 40
2017-10-20 14:00:00 19.8 6 Oeste 18 Sudoeste 0 937 -0.1 47
2017-10-20 13:00:00 18 8 Sudoeste 19 Sudoeste 0 937.4 0.8 55
2017-10-20 12:00:00 16 8 Oeste 19 Sudoeste 0 937.4 1.4 67
2017-10-20 11:00:00 14.4 5 Sudoeste 13 Sudoeste 0 937.1 1.9 77
2017-10-20 10:00:00 11.4 5 Sur 9 Sudoeste 0 936.6 1.8 91
2017-10-20 09:00:00 8.7 2 Sur 5 Sudoeste 0 936 1.7 91
2017-10-20 08:00:00 10.1 0 Calma 6 Sudoeste 0 935.2 0.7 91
2017-10-20 07:00:00 11 4 Sudoeste 7 Sudoeste 0 934.8 0.3 93
2017-10-20 06:00:00 9.6 0 Calma 4 Norte 0 934.3 0.1 92
2017-10-20 05:00:00 9.2 0 Calma 4 Sudoeste 0 934.5 0.1 89
2017-10-20 04:00:00 10.1 2 Sudoeste 8 Sur 0 934.5 0.5 89
2017-10-20 03:00:00 10.9 3 Sur 11 Sudoeste 0 934.2 0.3 87
2017-10-20 02:00:00 11.6 6 Sudoeste 18 Sudoeste 0 934.4 1 86
2017-10-20 01:00:00 11.8 7 Sudoeste 17 Sudoeste 0 934 0.8 86
2017-10-20 00:00:00 11.1 5 Sudoeste 14 Sudoeste 0 933.9 1.3 86
2017-10-19 23:00:00 11.4 7 Sudoeste 16 Sudoeste 0 933.4 1.1 83
2017-10-19 22:00:00 11.9 6 Sudoeste 18 Sudoeste 0 933.2 1.4 81
2017-10-19 21:00:00 11.9 9 Sudoeste 22 Sudoeste 0 932.6 1.2 81
2017-10-19 20:00:00 12.8 11 Sudoeste 27 Sudoeste 0 932.3 1.2 73
2017-10-19 19:00:00 14.3 9 Sudoeste 29 Sudoeste 0 931.8 0.9 64
2017-10-19 18:00:00 14.8 11 Sudoeste 26 Sudoeste 0 931.4 0.4 60
2017-10-19 17:00:00 14.5 13 Sudoeste 27 Sudoeste 0 931.1 -0.4 60
2017-10-19 16:00:00 14.4 10 Oeste 24 Sudoeste 0 930.9 -1 58
2017-10-19 15:00:00 15.7 9 Oeste 24 Sudoeste 0 931 -1 53
2017-10-19 14:00:00 13.8 9 Sudoeste 19 Sudoeste 0 931.5 -0.2 60
2017-10-19 13:00:00 12.7 7 Sur 17 Sur 0 931.9 0.9 62
2017-10-19 12:00:00 11 6 Sur 12 Sur 0 932 1.6 73
2017-10-19 11:00:00 9.3 6 Sur 16 Sudeste 0 931.7 1.6 78
2017-10-19 10:00:00 6.2 0 Calma 6 Este 0 931 1 88
2017-10-19 09:00:00 4.1 2 Sur 4 Nordeste 0 930.4 0.5 92
2017-10-19 08:00:00 3.7 2 Este 6 Sudoeste 0 930.1 0.3 90
2017-10-19 07:00:00 4.2 0 Calma 5 Sudoeste 0 930 0.2 90
2017-10-19 06:00:00 4.9 3 Sur 7 Este 0 929.9 0.2 90
2017-10-19 05:00:00 4.9 0 Calma 6 Sudoeste 0 929.8 0 90
2017-10-19 04:00:00 4.8 3 Norte 7 Norte 0 929.8 0 89
2017-10-19 03:00:00 6.6 3 Nordeste 12 Oeste 0 929.7 -0.4 86
2017-10-19 02:00:00 7.2 4 Oeste 8 Oeste 0 929.8 -0.2 87
2017-10-19 01:00:00 7.7 3 Nordeste 14 Oeste 0 929.8 0.2 83
2017-10-19 00:00:00 9.1 7 Oeste 14 Oeste 0 930.1 0.8 78
2017-10-18 23:00:00 9.7 6 Oeste 13 Oeste 0 930 1.5 75
2017-10-18 22:00:00 10.5 8 Noroeste 19 Oeste 0 929.6 1.5 72
2017-10-18 21:00:00 11.4 5 Oeste 18 Sudoeste 0 929.3 1.4 80
2017-10-18 20:00:00 11.6 7 Oeste 21 Oeste 0 928.5 0.8 73
2017-10-18 19:00:00 12.8 3 Oeste 11 Oeste 0 928.1 0.7 70
2017-10-18 18:00:00 12.2 6 Oeste 15 Sudoeste 0.4 927.9 -0.1 75
2017-10-18 17:00:00 11.6 8 Oeste 48 Norte 0.6 927.7 -0.8 77
2017-10-18 16:00:00 16.7 9 Sudoeste 27 Oeste 0 927.4 -1.6 44
2017-10-18 15:00:00 15 14 Sudoeste 33 Sudoeste 0 928 -1 51
2017-10-18 14:00:00 14.4 9 Oeste 30 Sudoeste 0 928.5 -0.6 54
2017-10-18 13:00:00 14 12 Sudoeste 28 Sudoeste 0 929 -0.2 62
2017-10-18 12:00:00 12.1 13 Sudoeste 24 Sudoeste 0 929 0.2 77
2017-10-18 11:00:00 11.4 8 Sur 19 Sudoeste 0 929.1 0.2 86
2017-10-18 10:00:00 10.9 8 Sur 23 Sur 0 929.2 -0.3 90
2017-10-18 09:00:00 10.6 8 Sur 19 Sur 0.6 928.8 -1.2 90
2017-10-18 08:00:00 10.4 5 Sur 13 Sudeste 0.6 928.9 -1.6 89
2017-10-18 07:00:00 10.5 5 Sur 15 Sur 0.2 929.5 -1.7 86
2017-10-18 06:00:00 10.6 6 Sur 13 Sudeste 0.2 930 -1.9 84
2017-10-18 05:00:00 10.4 2 Sur 7 Oeste 0 930.5 -1.7 87
2017-10-18 04:00:00 10.5 0 Calma 13 Sudoeste 0.2 931.2 -1.3 83
2017-10-18 03:00:00 10.9 5 Sudoeste 11 Sudoeste 0 931.9 -1.1 75
2017-10-18 02:00:00 10.8 5 Sur 13 Sur 0 932.2 -0.8 70
2017-10-18 01:00:00 11.4 2 Sur 11 Sur 0 932.5 -0.6 71
2017-10-18 00:00:00 12.3 6 Sudoeste 17 Sudoeste 0 933 -0.2 70
2017-10-17 23:00:00 13.7 7 Sudoeste 19 Sudoeste 0 933 -0.3 63
2017-10-17 22:00:00 13.8 5 Sudoeste 12 Sudoeste 0 933.1 0.1 61
2017-10-17 21:00:00 15.3 5 Sudoeste 22 Sudoeste 0 933.2 0 56
2017-10-17 20:00:00 16.2 6 Sudoeste 18 Sur 0 933.3 -0.2 58
2017-10-17 19:00:00 17 7 Sur 19 Sudoeste 0 933 -1 56
2017-10-17 18:00:00 17.1 9 Sudoeste 25 Sudoeste 0 933.2 -1.2 53
2017-10-17 17:00:00 17.2 13 Sudoeste 30 Sudoeste 0 933.5 -1.1 57
2017-10-17 16:00:00 16.5 15 Sudoeste 33 Sudoeste 0 934 -1.1 65
2017-10-17 15:00:00 16.1 13 Sudoeste 40 Sur 0.4 934.4 -0.8 82
2017-10-17 14:00:00 17.4 15 Sur 32 Sudoeste 0 934.6 -1.1 72
2017-10-17 13:00:00 17.1 15 Sur 33 Sur 0 935.1 -0.8 72
2017-10-17 12:00:00 15.6 9 Sur 18 Sudeste 0 935.2 -0.3 79
2017-10-17 11:00:00 14.7 5 Sur 13 Sur 0 935.7 -0.1 80
2017-10-17 10:00:00 14.5 6 Sur 14 Sur 1 935.9 0.2 78
2017-10-17 09:00:00 14.6 2 Sur 8 Sur 0.4 935.5 -0.1 77
2017-10-17 08:00:00 14.9 4 Sur 13 Sudoeste 0.2 935.8 -0.2 73
2017-10-17 07:00:00 15.8 4 Sur 13 Sudeste 0 935.7 -1.1 65
2017-10-17 06:00:00 14.6 0 Calma 5 Sudeste 0 935.6 -1.9 73
2017-10-17 05:00:00 15.2 3 Norte 6 Este 0 936 -1.8 76
2017-10-17 04:00:00 15.5 2 Norte 5 Nordeste 0 936.8 -1.8 77
2017-10-17 03:00:00 16.6 0 Calma 12 Sudoeste 0 937.5 -1.6 69
2017-10-17 02:00:00 16.4 2 Noroeste 6 Este 0.2 937.8 -1.1 63
2017-10-17 01:00:00 18.6 6 Sur 18 Sur 0 938.6 -0.3 48
2017-10-17 00:00:00 18.7 5 Sur 9 Sur 0 939.1 0.2 50
2017-10-16 23:00:00 19.6 3 Sudeste 18 Oeste 0 938.9 0.5 49
2017-10-16 22:00:00 20.8 8 Sudoeste 28 Sudoeste 0 938.9 0.2 38
2017-10-16 21:00:00 21.5 9 Sudoeste 32 Sudoeste 0 938.9 0.1 34
2017-10-16 20:00:00 22.4 17 Sudoeste 52 Sudoeste 0 938.4 -0.8 28
2017-10-16 19:00:00 22.5 3 Norte 13 Sudeste 0 938.7 -0.8 32
2017-10-16 18:00:00 23.8 4 Sur 12 Oeste 0 938.8 -0.8 25
2017-10-16 17:00:00 24.2 6 Oeste 28 Oeste 0 939.2 -0.8 26
2017-10-16 16:00:00 25.1 12 Oeste 27 Noroeste 0 939.5 -0.9 24
2017-10-16 15:00:00 25.2 10 Oeste 29 Sudoeste 0 939.6 -1 22
2017-10-16 14:00:00 25.6 9 Sudoeste 30 Sur 0 940 -0.3 22
2017-10-16 13:00:00 24.7 13 Sur 27 Sur 0 940.4 0.4 23
2017-10-16 12:00:00 22.4 10 Sur 24 Sur 0 940.6 1.1 28
2017-10-16 11:00:00 19.8 12 Sur 22 Sur 0 940.3 1.5 34
2017-10-16 10:00:00 15.1 5 Sur 9 Sur 0 940 1.5 50
2017-10-16 09:00:00 11 0 Calma 6 Norte 0 939.5 1.4 66
2017-10-16 08:00:00 11 0 Calma 6 Sur 0 938.8 1 65
2017-10-16 07:00:00 11.5 0 Calma 5 Sur 0 938.5 0.5 63
2017-10-16 06:00:00 14.5 3 Sur 9 Sur 0 938.1 0 54
2017-10-16 05:00:00 14.8 5 Sur 11 Sur 0 937.8 -0.5 53
2017-10-16 04:00:00 15.8 5 Sur 12 Sudoeste 0 938 -0.5 49
2017-10-16 03:00:00 16.3 5 Sudoeste 11 Sur 0 938.1 -0.5 48
2017-10-16 02:00:00 15.3 3 Sur 13 Sudoeste 0 938.3 -0.2 50
2017-10-16 01:00:00 17.8 6 Sur 14 Sur 0 938.5 0 42
2017-10-16 00:00:00 15.8 2 Sur 8 Sur 0 938.6 0.2 46
2017-10-15 23:00:00 17 3 Sur 5 Sur 0 938.5 0.2 42
2017-10-15 22:00:00 19.7 0 Calma 9 Sudoeste 0 938.5 0.3 35
2017-10-15 21:00:00 22.2 3 Sur 8 Sur 0 938.4 0.6 31
2017-10-15 20:00:00 25.5 6 Sur 38 Sudoeste 0 938.3 0.3 25
2017-10-15 19:00:00 26.9 19 Sudoeste 46 Sudoeste 0 938.2 -0.7 22
2017-10-15 18:00:00 28.7 21 Sur 42 Sur 0 937.8 -2.1 18
2017-10-15 17:00:00 30.5 8 Sur 23 Sudeste 0 938 -2.8 17
2017-10-15 16:00:00 28.8 5 Sudeste 14 Este 0 938.9 -2.9 19
2017-10-15 15:00:00 26.8 3 Este 18 Sudeste 0 939.9 -2.5 23
2017-10-15 14:00:00 25.9 5 Nordeste 14 Nordeste 0 940.8 -1.7 25
2017-10-15 13:00:00 22.9 6 Este 13 Este 0 941.8 -0.4 29
2017-10-15 12:00:00 20.2 6 Norte 18 Noroeste 0 942.4 0.7 35
2017-10-15 11:00:00 17.3 4 Norte 13 Nordeste 0 942.5 0.7 43
2017-10-15 10:00:00 16 5 Nordeste 10 Nordeste 0 942.2 0.5 48
2017-10-15 09:00:00 13.5 2 Nordeste 8 Nordeste 0 941.7 -0.1 60
2017-10-15 08:00:00 13.5 4 Norte 9 Nordeste 0 941.8 0.6 59
2017-10-15 07:00:00 13.7 3 Norte 23 Sur 0 941.7 0.1 58
2017-10-15 06:00:00 14.1 7 Norte 21 Sudoeste 0 941.8 0.2 55
2017-10-15 05:00:00 13.6 3 Norte 9 Norte 0 941.2 -0.6 58
2017-10-15 04:00:00 14.5 0 Calma 8 Norte 0 941.6 -0.3 53
2017-10-15 03:00:00 15.1 4 Nordeste 8 Nordeste 0 941.6 -0.1 51
2017-10-15 02:00:00 16.4 3 Nordeste 7 Sudoeste 0 941.8 0.4 49
2017-10-15 01:00:00 16.1 4 Sudeste 10 Sudeste 0 941.9 0.7 47
2017-10-15 00:00:00 16.6 0 Calma 4 Este 0 941.7 0.6 43
2017-10-14 23:00:00 17.9 2 Este 7 Sudoeste 0 941.4 0.8 38
2017-10-14 22:00:00 21.1 3 Oeste 15 Sudoeste 0 941.2 1.2 28
2017-10-14 21:00:00 22.8 11 Sudoeste 18 Sudoeste 0 941.1 1.2 25
2017-10-14 20:00:00 24.1 3 Sudoeste 16 Sudoeste 0 940.6 0.3 24
2017-10-14 19:00:00 27.1 7 Sudoeste 15 Sudoeste 0 940 -0.8 20
2017-10-14 18:00:00 28.1 5 Sur 20 Sur 0 939.9 -1.3 19
2017-10-14 17:00:00 27.6 4 Sur 15 Sur 0 940.3 -1.7 19
2017-10-14 16:00:00 26.5 7 Sur 17 Sur 0 940.8 -1.8 20
2017-10-14 15:00:00 25.1 6 Sur 15 Sur 0 941.2 -1.9 24
2017-10-14 14:00:00 23.2 4 Sudoeste 12 Sur 0 942 -1.1 29
2017-10-14 13:00:00 20.9 3 Sur 8 Este 0 942.6 -0.3 34
2017-10-14 12:00:00 17.5 3 Noroeste 9 Nordeste 0 943.1 0.8 42
2017-10-14 11:00:00 14.6 4 Norte 13 Nordeste 0 943.1 1.1 50
2017-10-14 10:00:00 10.8 3 Nordeste 8 Norte 0 942.9 1 62
2017-10-14 09:00:00 7.2 4 Norte 7 Norte 0 942.3 0.5 73
2017-10-14 08:00:00 6.9 4 Norte 6 Norte 0 942 0.2 73
2017-10-14 07:00:00 7.1 3 Norte 8 Nordeste 0 941.9 0 73
2017-10-14 06:00:00 8.4 4 Nordeste 11 Norte 0 941.8 -0.3 69
2017-10-14 05:00:00 8.8 4 Norte 14 Noroeste 0 941.8 -0.4 70
2017-10-14 04:00:00 9.1 3 Noroeste 6 Norte 0 941.9 -0.4 68
2017-10-14 03:00:00 9.8 4 Norte 6 Nordeste 0 942.1 0.2 67
2017-10-14 02:00:00 11.1 0 Calma 10 Norte 0 942.2 0.5 65
2017-10-14 01:00:00 11.7 4 Norte 6 Nordeste 0 942.3 0.8 69
2017-10-14 00:00:00 12.9 0 Calma 5 Sudeste 0 941.9 0.5 63
2017-10-13 23:00:00 13.9 0 Calma 5 Sudoeste 0 941.7 0.5 57
2017-10-13 22:00:00 16.4 4 Sudoeste 5 Sudoeste 0 941.5 0.8 50
2017-10-13 21:00:00 17.1 2 Noroeste 3 Norte 0 941.4 0.7 46
2017-10-13 20:00:00 20.7 0 Calma 5 Sur 0 941.2 0.4 36
2017-10-13 19:00:00 25.6 5 Sur 16 Sur 0 940.7 -0.5 26
2017-10-13 18:00:00 26.6 10 Sur 22 Sur 0 940.7 -1.2 24
2017-10-13 17:00:00 26.9 8 Sur 18 Sudoeste 0 940.8 -1.7 24
2017-10-13 16:00:00 26.6 7 Sur 19 Sur 0 941.2 -2 23
2017-10-13 15:00:00 25.6 5 Sur 21 Sudoeste 0 941.9 -1.5 23
2017-10-13 14:00:00 24.1 5 Sur 13 Sudoeste 0 942.5 -0.9 21
2017-10-13 13:00:00 21.6 3 Oeste 13 Norte 0 943.2 0.2 24
2017-10-13 12:00:00 18.2 3 Norte 10 Nordeste 0 943.4 0.9 30
2017-10-13 11:00:00 15.1 3 Nordeste 8 Nordeste 0 943.4 0.9 37
2017-10-13 10:00:00 10.6 3 Nordeste 7 Norte 0 943 0.7 55
2017-10-13 09:00:00 7.9 4 Norte 8 Norte 0 942.5 0.4 59
2017-10-13 08:00:00 7.6 0 Calma 7 Norte 0 942.5 0.5 60
2017-10-13 07:00:00 8 2 Nordeste 8 Norte 0 942.3 0 58
2017-10-13 06:00:00 9.3 4 Norte 13 Norte 0 942.1 0 54
2017-10-13 05:00:00 10.9 3 Norte 13 Norte 0 942 0.1 48
2017-10-13 04:00:00 11.5 5 Noroeste 14 Norte 0 942.3 0.3 46
2017-10-13 03:00:00 12.3 5 Norte 17 Norte 0 942.1 0 44
2017-10-13 02:00:00 12.7 8 Norte 14 Norte 0 941.9 0.4 44
2017-10-13 01:00:00 12.7 4 Norte 10 Norte 0 942 0.5 44
2017-10-13 00:00:00 13.5 5 Norte 10 Noroeste 0 942.1 0.9 41
2017-10-12 23:00:00 15.1 4 Norte 8 Norte 0 941.5 0.3 34
2017-10-12 22:00:00 15.6 2 Norte 5 Norte 0 941.5 0.4 33
2017-10-12 21:00:00 17.3 3 Norte 4 Norte 0 941.2 0.1 28
2017-10-12 20:00:00 20.7 3 Norte 5 Nordeste 0 941.2 -0.1 23
2017-10-12 19:00:00 26.6 3 Sudeste 12 Sur 0 941.1 -0.6 13
2017-10-12 18:00:00 27.6 3 Sur 16 Sur 0 941.1 -1.2 12
2017-10-12 17:00:00 27.3 5 Sudeste 15 Sur 0 941.3 -1.8 13
2017-10-12 16:00:00 26.7 5 Sur 15 Sudeste 0 941.7 -2 13
2017-10-12 15:00:00 24.8 5 Sudeste 13 Sur 0 942.3 -1.6 16
2017-10-12 14:00:00 22.8 3 Sudeste 9 Sudeste 0 943.1 -0.9 19
2017-10-12 13:00:00 19.5 3 Nordeste 12 Nordeste 0 943.7 0.2 26
2017-10-12 12:00:00 16.4 5 Nordeste 13 Nordeste 0 943.9 0.7 31
2017-10-12 11:00:00 13.1 4 Norte 10 Norte 0 944 1.2 41
2017-10-12 10:00:00 9.1 5 Norte 10 Nordeste 0 943.5 1.1 57
2017-10-12 09:00:00 5.4 4 Nordeste 7 Nordeste 0 943.2 1 69
2017-10-12 08:00:00 5.2 0 Calma 6 Nordeste 0 942.8 0.9 67
2017-10-12 07:00:00 5.4 4 Norte 8 Norte 0 942.4 0.5 66
2017-10-12 06:00:00 6.5 3 Nordeste 8 Noroeste 0 942.2 0.4 60
2017-10-12 05:00:00 7.4 6 Norte 10 Norte 0 941.9 0.2 58
2017-10-12 04:00:00 7.5 3 Norte 7 Este 0 941.9 0.6 55
2017-10-12 03:00:00 9.1 2 Sur 5 Este 0 941.8 0.5 54
2017-10-12 02:00:00 10.6 2 Sur 6 Nordeste 0 941.7 0.5 49
2017-10-12 01:00:00 12.6 2 Sudoeste 6 Sudoeste 0 941.3 0.6 36
2017-10-12 00:00:00 13.8 3 Nordeste 15 Noroeste 0 941.3 1.2 35
2017-10-11 23:00:00 18.3 7 Oeste 13 Noroeste 0 941.2 1.9 21
2017-10-11 22:00:00 19.4 5 Oeste 15 Oeste 0 940.7 1.8 20
2017-10-11 21:00:00 19.5 8 Noroeste 14 Oeste 0 940.1 1.6 20
2017-10-11 20:00:00 22.8 8 Sudoeste 17 Oeste 0 939.3 0.7 15
2017-10-11 19:00:00 25.5 7 Sudoeste 19 Sudoeste 0 938.9 0.1 13
2017-10-11 18:00:00 26.9 5 Sur 21 Sur 0 938.5 -0.8 12
2017-10-11 17:00:00 26.8 8 Sur 22 Sur 0 938.6 -1.3 12
2017-10-11 16:00:00 26 11 Sur 20 Sur 0 938.8 -1.4 13
2017-10-11 15:00:00 24.2 5 Sur 14 Sur 0 939.3 -1.2 17
2017-10-11 14:00:00 21.7 4 Oeste 11 Sudoeste 0 939.9 -0.3 20
2017-10-11 13:00:00 19.4 3 Sudoeste 8 Sur 0 940.2 0.2 24
2017-10-11 12:00:00 15.6 3 Norte 8 Nordeste 0 940.5 0.9 31
2017-10-11 11:00:00 12.1 4 Este 10 Nordeste 0 940.2 1.3 39
2017-10-11 10:00:00 8.4 3 Nordeste 10 Norte 0 940 1.2 51
2017-10-11 09:00:00 5.6 2 Sudoeste 5 Sur 0 939.6 1 63
2017-10-11 08:00:00 4.9 4 Norte 9 Norte 0 938.9 0.3 62
2017-10-11 07:00:00 6.1 3 Nordeste 12 Norte 0 938.8 0.3 58
2017-10-11 06:00:00 8.5 8 Noroeste 14 Norte 0 938.6 -0.2 47
2017-10-11 05:00:00 6.6 0 Calma 4 Nordeste 0 938.6 0 56
2017-10-11 04:00:00 8.7 3 Norte 9 Norte 0 938.5 -0.1 47
2017-10-11 03:00:00 8.8 5 Norte 8 Noroeste 0 938.8 0.4 47
2017-10-11 02:00:00 9.9 4 Norte 12 Sur 0 938.6 0.5 46
2017-10-11 01:00:00 10.6 4 Nordeste 9 Norte 0 938.6 0.9 55
2017-10-11 00:00:00 11.8 2 Oeste 6 Oeste 0 938.4 1 42
2017-10-10 23:00:00 13.1 0 Calma 6 Nordeste 0 938.1 0.8 35
2017-10-10 22:00:00 16.2 3 Sur 6 Sudoeste 0 937.7 0.7 28
2017-10-10 21:00:00 17 3 Sudoeste 6 Sudoeste 0 937.4 0.7 27
2017-10-10 20:00:00 21.5 3 Sudoeste 12 Sur 0 937.3 0.3 21
2017-10-10 19:00:00 25.6 6 Sur 17 Sur 0 937 -0.4 13
2017-10-10 18:00:00 26.9 5 Sur 16 Sur 0 936.7 -1.1 12
2017-10-10 17:00:00 26.9 5 Sudoeste 19 Sur 0 937 -1.7 13
2017-10-10 16:00:00 26.2 4 Sur 14 Sur 0 937.4 -1.8 14
2017-10-10 15:00:00 24.6 4 Sudeste 12 Sur 0 937.8 -1.7 17
2017-10-10 14:00:00 22.9 3 Sudeste 12 Este 0 938.7 -0.9 23
2017-10-10 13:00:00 20.1 6 Norte 16 Nordeste 0 939.2 -0.3 27
2017-10-10 12:00:00 17.3 4 Nordeste 15 Nordeste 0 939.5 0.4 32
2017-10-10 11:00:00 14.4 6 Norte 13 Norte 0 939.6 1.1 39
2017-10-10 10:00:00 10.8 6 Norte 12 Norte 0 939.5 1.3 49
2017-10-10 09:00:00 6.8 6 Norte 20 Noroeste 0 939.1 0.9 61
2017-10-10 08:00:00 6.6 4 Norte 8 Norte 0 938.5 0.3 61
2017-10-10 07:00:00 6.3 4 Norte 8 Norte 0 938.2 -0.1 62
2017-10-10 06:00:00 7.5 6 Norte 12 Norte 0 938.2 -0.2 58
2017-10-10 05:00:00 7.3 4 Norte 9 Norte 0 938.2 -0.1 59
2017-10-10 04:00:00 7.4 3 Norte 5 Norte 0 938.3 -0.2 56
2017-10-10 03:00:00 8.2 3 Nordeste 6 Nordeste 0 938.4 0.1 55
2017-10-10 02:00:00 10.4 4 Norte 9 Norte 0 938.3 0.4 45
2017-10-10 01:00:00 9.6 6 Norte 13 Nordeste 0 938.5 0.9 48
2017-10-10 00:00:00 12.6 6 Norte 10 Norte 0 938.3 0.7 38
2017-10-09 23:00:00 12.8 3 Nordeste 5 Norte 0 937.9 0.6 38
2017-10-09 22:00:00 13.8 2 Este 5 Este 0 937.6 0.4 36
2017-10-09 21:00:00 15.8 0 Calma 4 Nordeste 0 937.6 0.4 30
2017-10-09 20:00:00 20.2 0 Calma 5 Sur 0 937.3 -0.2 21
2017-10-09 19:00:00 26.1 3 Sudoeste 9 Sudoeste 0 937.2 -0.8 12
2017-10-09 18:00:00 26.3 5 Sur 12 Sur 0 937.2 -1.2 12
2017-10-09 17:00:00 25.7 5 Este 12 Sudoeste 0 937.5 -1.8 12
2017-10-09 16:00:00 25.9 3 Sudoeste 15 Norte 0 938 -2 12
2017-10-09 15:00:00 25 4 Sudoeste 14 Este 0 938.4 -1.9 13
2017-10-09 14:00:00 22.6 4 Sudeste 15 Este 0 939.3 -1.1 20
2017-10-09 13:00:00 20.5 6 Este 17 Nordeste 0 940 -0.2 22
2017-10-09 12:00:00 18 9 Nordeste 18 Nordeste 0 940.3 0.4 26
2017-10-09 11:00:00 14.3 9 Norte 17 Nordeste 0 940.4 0.9 34
2017-10-09 10:00:00 10.7 8 Norte 16 Norte 0 940.2 0.7 44
2017-10-09 09:00:00 7.2 5 Norte 10 Norte 0 939.9 0.4 56
2017-10-09 08:00:00 7.1 5 Norte 11 Norte 0 939.5 0 57
2017-10-09 07:00:00 5.9 5 Norte 8 Norte 0 939.5 0 62
2017-10-09 06:00:00 7 5 Norte 9 Norte 0 939.5 0 58
2017-10-09 05:00:00 8.9 2 Nordeste 8 Norte 0 939.5 0.3 52
2017-10-09 04:00:00 11.3 6 Noroeste 13 Noroeste 0 939.5 0.2 44
2017-10-09 03:00:00 12.7 6 Norte 16 Norte 0 939.5 0.2 42
2017-10-09 02:00:00 13.8 6 Nordeste 15 Nordeste 0 939.2 0.6 38
2017-10-09 01:00:00 13.6 6 Nordeste 12 Nordeste 0 939.3 1 35
2017-10-09 00:00:00 12.8 6 Norte 24 Nordeste 0 939.3 1.3 37
2017-10-08 23:00:00 12.9 4 Norte 8 Norte 0 938.6 0.8 36
2017-10-08 22:00:00 14.4 3 Norte 6 Sudoeste 0 938.3 0.7 33
2017-10-08 21:00:00 16.6 3 Sudoeste 6 Sudoeste 0 938 0.5 29
2017-10-08 20:00:00 20.8 0 Calma 8 Sur 0 937.8 -0.1 20
2017-10-08 19:00:00 26.6 5 Sur 11 Sur 0 937.6 -0.8 12
2017-10-08 18:00:00 26.9 7 Sudoeste 13 Sudoeste 0 937.5 -1.4 11
2017-10-08 17:00:00 27.3 3 Oeste 13 Sudoeste 0 937.9 -2 11
2017-10-08 16:00:00 26.1 3 Oeste 15 Sudoeste 0 938.4 -2 11
2017-10-08 15:00:00 25.2 4 Sur 12 Sur 0 938.9 -1.6 12
2017-10-08 14:00:00 23.1 4 Sudeste 11 Sudoeste 0 939.9 -0.6 15
2017-10-08 13:00:00 21.2 3 Sur 10 Nordeste 0 940.4 0 16
2017-10-08 12:00:00 18.2 3 Nordeste 15 Nordeste 0 940.5 0.6 19
2017-10-08 11:00:00 14.6 9 Nordeste 15 Nordeste 0 940.5 0.7 31
2017-10-08 10:00:00 10.5 6 Noroeste 12 Norte 0 940.4 0.6 42
2017-10-08 09:00:00 6.7 6 Norte 11 Norte 0 939.9 0.4 54
2017-10-08 08:00:00 5.9 4 Noroeste 11 Noroeste 0 939.8 0.3 56
2017-10-08 07:00:00 5.8 3 Nordeste 8 Nordeste 0 939.8 0.3 55
2017-10-08 06:00:00 6 3 Norte 8 Norte 0 939.5 -0.2 56
2017-10-08 05:00:00 7.2 5 Norte 8 Norte 0 939.5 -0.1 53
2017-10-08 04:00:00 7 4 Norte 12 Noroeste 0 939.5 -0.1 50
2017-10-08 03:00:00 7.9 2 Norte 9 Norte 0 939.7 0.2 45
2017-10-08 02:00:00 8.7 4 Nordeste 10 Norte 0 939.6 0.5 46
2017-10-08 01:00:00 10.9 2 Oeste 5 Noroeste 0 939.6 1 32
2017-10-08 00:00:00 11.7 2 Oeste 6 Norte 0 939.5 1.1 34
2017-10-07 23:00:00 11.9 5 Norte 6 Norte 0 939.1 0.8 30
2017-10-07 22:00:00 13.6 0 Calma 4 Sudeste 0 938.6 0.5 27
2017-10-07 21:00:00 15.8 0 Calma 3 Norte 0 938.4 0.3 20
2017-10-07 20:00:00 20.5 0 Calma 8 Sudeste 0 938.3 -0.1 15
2017-10-07 19:00:00 25.8 3 Este 10 Sudeste 0 938.1 -1 8
2017-10-07 18:00:00 26.3 2 Sur 17 Sudeste 0 938.1 -1.6 7
2017-10-07 17:00:00 25.9 4 Este 21 Este 0 938.4 -2.1 7
2017-10-07 16:00:00 24.8 10 Este 22 Este 0 939.1 -2.1 10
2017-10-07 15:00:00 23.4 9 Este 23 Este 0 939.7 -1.8 12
2017-10-07 14:00:00 21.8 10 Este 28 Este 0 940.5 -1.5 16
2017-10-07 13:00:00 18.9 6 Nordeste 15 Norte 0 941.2 -0.7 33
2017-10-07 12:00:00 15.9 3 Sudeste 8 Norte 0 941.5 -0.3 48
2017-10-07 11:00:00 13.1 3 Este 8 Noroeste 0 942 0.5 58
2017-10-07 10:00:00 9.2 3 Noroeste 8 Noroeste 0 941.9 0.3 71
2017-10-07 09:00:00 5.9 0 Calma 12 Sudeste 0 941.8 0.3 81
2017-10-07 08:00:00 6.9 7 Norte 12 Norte 0 941.5 -0.1 80
2017-10-07 07:00:00 8 5 Norte 11 Norte 0 941.6 -0.3 75
2017-10-07 06:00:00 8 5 Norte 14 Norte 0 941.5 -0.5 77
2017-10-07 05:00:00 9 7 Nordeste 12 Norte 0 941.6 -0.6 77
2017-10-07 04:00:00 9.5 2 Norte 9 Nordeste 0 941.9 -0.3 74
2017-10-07 03:00:00 10.8 4 Nordeste 15 Nordeste 0 942 0 72
2017-10-07 02:00:00 11.6 4 Norte 12 Nordeste 0 942.2 0.6 70
2017-10-07 01:00:00 12.9 6 Nordeste 19 Este 0 942.2 1.2 65
2017-10-07 00:00:00 14.1 10 Este 24 Este 0 942 1.3 62
2017-10-06 23:00:00 15.4 9 Este 26 Nordeste 0 941.6 1.7 53
2017-10-06 22:00:00 17 9 Nordeste 22 Nordeste 0 941 1.4 41
2017-10-06 21:00:00 18.7 8 Este 30 Este 0 940.7 1.1 43
2017-10-06 20:00:00 21.6 6 Este 13 Este 0 939.9 0.1 33
2017-10-06 19:00:00 25.6 5 Este 15 Sudeste 0 939.6 -0.8 21
2017-10-06 18:00:00 26.4 6 Sudeste 16 Sudeste 0 939.6 -1.4 18
2017-10-06 17:00:00 25.7 8 Este 18 Este 0 939.8 -1.9 20
2017-10-06 16:00:00 25 8 Nordeste 20 Este 0 940.4 -1.9 22
2017-10-06 15:00:00 23.8 4 Oeste 22 Este 0 941 -1.7 28
2017-10-06 14:00:00 22.5 6 Este 18 Sudeste 0 941.7 -1.1 33
2017-10-06 13:00:00 20 10 Este 20 Este 0 942.3 -0.1 38
2017-10-06 12:00:00 17.5 7 Este 20 Este 0 942.7 0.6 53
2017-10-06 11:00:00 14.6 6 Nordeste 14 Nordeste 0 942.8 1.2 67
2017-10-06 10:00:00 12.4 3 Norte 11 Norte 0 942.4 1 76
2017-10-06 09:00:00 9.5 4 Norte 11 Norte 0 942.1 0.7 85
2017-10-06 08:00:00 9.1 3 Nordeste 10 Norte 0 941.6 0.3 85
2017-10-06 07:00:00 11 6 Norte 11 Norte 0 941.4 0 84
2017-10-06 06:00:00 11.5 7 Norte 10 Norte 0 941.4 -0.1 83
2017-10-06 05:00:00 12.1 4 Norte 17 Nordeste 0 941.3 -0.2 81
2017-10-06 04:00:00 13 7 Nordeste 18 Nordeste 0 941.4 0.2 79
2017-10-06 03:00:00 14.1 7 Nordeste 21 Este 0 941.5 0.4 76
2017-10-06 02:00:00 14.9 9 Nordeste 19 Nordeste 0 941.5 0.6 73
2017-10-06 01:00:00 16.2 11 Este 23 Este 0 941.2 1.2 69
2017-10-06 00:00:00 17.3 12 Nordeste 27 Nordeste 0 941.1 2.4 66
2017-10-05 23:00:00 19 11 Nordeste 34 Nordeste 0 940.9 2.4 61
2017-10-05 22:00:00 21.3 18 Este 37 Este 0 940 1.6 50
2017-10-05 21:00:00 21.4 3 Oeste 5 Sudoeste 0 938.7 0.3 34
2017-10-05 20:00:00 25.6 0 Calma 8 Sudeste 0 938.5 -0.2 26
2017-10-05 19:00:00 30.2 6 Sudeste 13 Sudeste 0 938.4 -0.8 18
2017-10-05 18:00:00 30.8 4 Este 11 Nordeste 0 938.4 -1.5 17
2017-10-05 17:00:00 31.2 6 Sudoeste 15 Sudoeste 0 938.7 -2.1 17
2017-10-05 16:00:00 30.4 7 Oeste 17 Sur 0 939.2 -2.3 18
2017-10-05 15:00:00 28.7 6 Sudoeste 16 Sudoeste 0 939.9 -2.1 26
2017-10-05 14:00:00 27 5 Sudoeste 13 Sur 0 940.8 -1.1 29
2017-10-05 13:00:00 24.5 5 Oeste 10 Oeste 0 941.5 -0.1 33
2017-10-05 12:00:00 21.6 4 Nordeste 10 Nordeste 0 942 0.7 41
2017-10-05 11:00:00 18.9 2 Norte 8 Norte 0 941.9 0.8 49
2017-10-05 10:00:00 15.5 4 Norte 12 Norte 0 941.6 1 59
2017-10-05 09:00:00 11.6 5 Norte 12 Norte 0 941.3 0.7 73
2017-10-05 08:00:00 10.9 4 Norte 8 Norte 0 941.1 0.7 75
2017-10-05 07:00:00 12.1 0 Calma 12 Norte 0 940.6 0.2 70
2017-10-05 06:00:00 12.5 3 Norte 13 Norte 0 940.6 -0.1 69
2017-10-05 05:00:00 13.2 6 Noroeste 14 Norte 0 940.4 -0.5 68
2017-10-05 04:00:00 13.8 6 Norte 14 Norte 0 940.4 -0.3 66
2017-10-05 03:00:00 14 7 Norte 13 Norte 0 940.7 0.4 66
2017-10-05 02:00:00 14.8 4 Nordeste 17 Norte 0 940.9 0.8 64
2017-10-05 01:00:00 17.3 2 Nordeste 15 Noroeste 0 940.7 0.8 54
2017-10-05 00:00:00 15.8 5 Noroeste 9 Noroeste 0 940.3 0.8 54
2017-10-04 23:00:00 17.2 2 Nordeste 4 Norte 0 940.1 1 51
2017-10-04 22:00:00 19.2 5 Norte 6 Norte 0 939.9 0.9 45
2017-10-04 21:00:00 20.3 3 Norte 5 Este 0 939.5 0.4 41
2017-10-04 20:00:00 24.7 0 Calma 8 Sudoeste 0 939.1 0.1 31
2017-10-04 19:00:00 29.1 5 Sudoeste 15 Sudoeste 0 939 -0.4 22
2017-10-04 18:00:00 29 6 Sudoeste 18 Sur 0 939.1 -0.9 22
2017-10-04 17:00:00 29.3 7 Sudoeste 18 Sur 0 939 -1.8 23
2017-10-04 16:00:00 27.7 5 Sudoeste 17 Sudeste 0 939.4 -1.9 27
2017-10-04 15:00:00 26.9 5 Este 20 Este 0 940 -1.6 31
2017-10-04 14:00:00 24.2 6 Este 18 Este 0 940.8 -1 37
2017-10-04 13:00:00 21.8 8 Nordeste 18 Nordeste 0 941.3 -0.1 48
2017-10-04 12:00:00 18.9 6 Nordeste 20 Nordeste 0 941.6 0.4 60
2017-10-04 11:00:00 16.3 9 Nordeste 19 Nordeste 0 941.8 1.2 69
2017-10-04 10:00:00 14.9 9 Norte 20 Nordeste 0 941.4 0.8 74
2017-10-04 09:00:00 12.6 5 Norte 14 Norte 0 941.2 0.9 84
2017-10-04 08:00:00 12.6 7 Norte 14 Norte 0 940.6 0.3 84
2017-10-04 07:00:00 13.2 8 Norte 18 Norte 0 940.6 0.3 82
2017-10-04 06:00:00 13.7 9 Norte 17 Norte 0 940.3 -0.6 82
2017-10-04 05:00:00 14.1 8 Norte 15 Norte 0 940.3 -0.3 81
2017-10-04 04:00:00 14.9 7 Norte 13 Norte 0 940.3 -0.1 77
2017-10-04 03:00:00 15.9 6 Norte 15 Norte 0 940.9 0.6 73
2017-10-04 02:00:00 17.1 7 Nordeste 25 Nordeste 0 940.6 0.9 69
2017-10-04 01:00:00 17.8 8 Nordeste 24 Nordeste 0 940.4 1.3 66
2017-10-04 00:00:00 19 8 Nordeste 26 Nordeste 0 940.3 1.9 60
2017-10-03 23:00:00 20.2 12 Este 29 Nordeste 0 939.7 1.7 55
2017-10-03 22:00:00 20.2 5 Nordeste 22 Este 0 939.1 1.1 44
2017-10-03 21:00:00 21.3 3 Nordeste 8 Nordeste 0 938.4 0.3 43
2017-10-03 20:00:00 25 3 Este 9 Este 0 938 -0.3 33
2017-10-03 19:00:00 27.6 5 Este 12 Este 0 938 -0.6 26
2017-10-03 18:00:00 28 5 Nordeste 14 Nordeste 0 938.1 -1.3 26
2017-10-03 17:00:00 28.1 4 Noroeste 13 Noroeste 0 938.3 -1.8 28
2017-10-03 16:00:00 28 7 Sur 18 Sudeste 0 938.6 -2 30
2017-10-03 15:00:00 26.6 5 Nordeste 19 Nordeste 0 939.4 -1.7 36
2017-10-03 14:00:00 25.3 10 Nordeste 22 Este 0 940.1 -1.2 41
2017-10-03 13:00:00 23.5 7 Nordeste 18 Norte 0 940.6 -0.3 51
2017-10-03 12:00:00 21.2 4 Sudeste 13 Nordeste 0 941.1 0.5 60
2017-10-03 11:00:00 18.7 6 Nordeste 15 Nordeste 0 941.3 0.9 69
2017-10-03 10:00:00 16.8 5 Nordeste 10 Nordeste 0 940.9 0.6 74
2017-10-03 09:00:00 13.3 5 Norte 10 Norte 0 940.6 0.1 86
2017-10-03 08:00:00 13.6 6 Norte 15 Norte 0 940.4 0 86
2017-10-03 07:00:00 13.7 0 Calma 8 Norte 0 940.3 -0.7 84
2017-10-03 06:00:00 14.7 5 Norte 9 Noroeste 0 940.5 -0.6 81
2017-10-03 05:00:00 15.5 5 Noroeste 9 Norte 0 940.4 -0.7 78
2017-10-03 04:00:00 15.7 5 Norte 8 Noroeste 0 941 -0.2 76
2017-10-03 03:00:00 16.3 2 Norte 8 Norte 0 941.1 -0.1 73
2017-10-03 02:00:00 16.4 5 Norte 12 Nordeste 0 941.1 -0.1 74
2017-10-03 01:00:00 18.1 4 Norte 7 Nordeste 0 941.2 0.2 68
2017-10-03 00:00:00 18.4 3 Nordeste 5 Nordeste 0 941.2 0.3 67
2017-10-02 23:00:00 19.5 0 Calma 4 Sur 0 941.2 0.5 64
2017-10-02 22:00:00 21.2 0 Calma 4 Sudoeste 0 941 0.3 57
2017-10-02 21:00:00 24.3 3 Sudoeste 8 Sudoeste 0 940.9 0 49
2017-10-02 20:00:00 26.6 5 Sur 10 Sur 0 940.7 -0.5 41
2017-10-02 19:00:00 28.8 5 Sur 11 Sur 0 940.7 -0.9 33
2017-10-02 18:00:00 28.2 6 Sudeste 20 Sudeste 0 940.9 -1.7 36
2017-10-02 17:00:00 28.7 5 Sudoeste 17 Sudoeste 0 941.2 -1.9 36
2017-10-02 16:00:00 27.6 5 Norte 15 Sudeste 0 941.6 -1.9 39
2017-10-02 15:00:00 26.6 5 Nordeste 15 Este 0 942.6 -1.2 42
2017-10-02 14:00:00 26.2 4 Oeste 14 Sur 0 943.1 -0.6 43
2017-10-02 13:00:00 25.2 4 Sur 14 Nordeste 0 943.5 -0.1 45
2017-10-02 12:00:00 22.8 3 Oeste 9 Sudeste 0 943.8 0.4 51
2017-10-02 11:00:00 20.7 2 Sur 7 Sur 0 943.7 0.6 56
2017-10-02 10:00:00 17.5 3 Nordeste 10 Nordeste 0 943.6 0.8 67
2017-10-02 09:00:00 14.4 3 Norte 6 Norte 0 943.4 1 73
2017-10-02 08:00:00 14.1 2 Este 7 Nordeste 0 943.1 0.7 73
2017-10-02 07:00:00 13.6 4 Norte 8 Norte 0 942.8 0.3 75
2017-10-02 06:00:00 14 4 Norte 5 Norte 0 942.4 -0.2 73
2017-10-02 05:00:00 15.3 3 Nordeste 9 Norte 0 942.4 -0.2 70
2017-10-02 04:00:00 15.5 5 Norte 8 Norte 0 942.5 0 72
2017-10-02 03:00:00 16.8 3 Este 6 Este 0 942.6 0.2 67
2017-10-02 02:00:00 16.7 2 Nordeste 7 Sur 0 942.6 0.4 66
2017-10-02 01:00:00 17.8 2 Nordeste 11 Nordeste 0 942.5 0.6 61
2017-10-02 00:00:00 18.4 4 Norte 11 Oeste 0 942.4 0.7 58
2017-10-01 23:00:00 18.5 4 Norte 7 Norte 0 942.2 0.7 58
2017-10-01 22:00:00 20.4 3 Nordeste 9 Norte 0 941.9 0.8 54
2017-10-01 21:00:00 21.4 3 Norte 11 Norte 0 941.7 0.9 48
2017-10-01 20:00:00 22.5 6 Norte 14 Norte 0 941.5 0.9 44
2017-10-01 19:00:00 24.1 8 Norte 22 Nordeste 0 941.1 0.2 34
2017-10-01 18:00:00 25.3 13 Norte 24 Nordeste 0 940.8 -0.5 30
2017-10-01 17:00:00 25.9 6 Norte 19 Norte 0 940.6 -1.3 30
2017-10-01 16:00:00 26.1 4 Sudoeste 22 Este 0 940.9 -1.2 30
2017-10-01 15:00:00 24.7 5 Noroeste 30 Norte 0 941.3 -0.9 35
2017-10-01 14:00:00 23.6 6 Noroeste 18 Noroeste 0 941.9 0 38
2017-10-01 13:00:00 22.4 4 Sudoeste 12 Noroeste 0 942.1 0.4 43
2017-10-01 12:00:00 20.2 4 Sudeste 12 Nordeste 0 942.2 0.7 51
2017-10-01 11:00:00 18.1 3 Nordeste 10 Nordeste 0 941.9 0.7 58
2017-10-01 10:00:00 16.4 3 Este 6 Nordeste 0 941.7 1.2 64
2017-10-01 09:00:00 12.3 3 Norte 6 Noroeste 0 941.5 1 78
2017-10-01 08:00:00 12.2 3 Noroeste 6 Noroeste 0 941.2 0.9 78
2017-10-01 07:00:00 13 2 Noroeste 5 Norte 0 940.5 -0.1 76
2017-10-01 06:00:00 13.6 3 Noroeste 6 Noroeste 0 940.5 0.2 71
2017-10-01 05:00:00 14.4 3 Nordeste 8 Norte 0 940.3 -0.2 67
2017-10-01 04:00:00 14.2 3 Norte 7 Nordeste 0 940.6 0 67
2017-10-01 03:00:00 14.3 4 Norte 8 Norte 0 940.3 0.3 67
2017-10-01 02:00:00 14.4 2 Noroeste 8 Norte 0 940.5 0.7 65
2017-10-01 01:00:00 15.1 4 Norte 11 Nordeste 0 940.6 1.5 63
2017-10-01 00:00:00 16.1 7 Nordeste 35 Norte 0 940 1.7 59
2017-09-30 23:00:00 17.2 18 Norte 34 Norte 0 939.8 2.4 54
2017-09-30 22:00:00 18.3 19 Norte 42 Noroeste 0 939.1 1.9 49
2017-09-30 21:00:00 20 17 Noroeste 36 Noroeste 0 938.3 1.5 44
2017-09-30 20:00:00 22.3 9 Noroeste 22 Noroeste 0 937.4 0.3 38
2017-09-30 19:00:00 24.9 5 Oeste 12 Oeste 0 937.2 -0.1 33
2017-09-30 18:00:00 25.6 4 Sur 12 Sur 0 936.8 -0.9 32
2017-09-30 17:00:00 25.4 6 Sudoeste 13 Oeste 0 937.1 -1.2 33
2017-09-30 16:00:00 24.5 6 Sudoeste 18 Oeste 0 937.3 -1.7 37
2017-09-30 15:00:00 23.5 3 Sur 16 Nordeste 0 937.7 -1.8 42
2017-09-30 14:00:00 22 3 Sudoeste 13 Norte 0 938.3 -1.3 50
2017-09-30 13:00:00 21 5 Norte 17 Nordeste 0 939 -0.3 56
2017-09-30 12:00:00 18.4 5 Nordeste 13 Nordeste 0 939.5 0.4 65
2017-09-30 11:00:00 16 5 Nordeste 10 Nordeste 0 939.6 0.8 74
2017-09-30 10:00:00 14.4 3 Nordeste 6 Norte 0 939.3 0.2 78
2017-09-30 09:00:00 13.4 3 Norte 6 Norte 0 939.1 0.1 79
2017-09-30 08:00:00 13.6 2 Sur 7 Sur 0 938.8 0 79
2017-09-30 07:00:00 13.4 2 Norte 7 Nordeste 0 939.1 0.2 80
2017-09-30 06:00:00 13.8 0 Calma 4 Oeste 0 939 0 76
2017-09-30 05:00:00 14.5 0 Calma 5 Sur 0 938.8 -0.3 75
2017-09-30 04:00:00 14.3 3 Sur 5 Sur 0 938.9 -0.3 77
2017-09-30 03:00:00 14.5 0 Calma 5 Este 0 939 0 75
2017-09-30 02:00:00 15.7 0 Calma 9 Noroeste 0 939.1 0.3 72
2017-09-30 01:00:00 17.4 6 Este 16 Noroeste 0 939.2 0.5 67
2017-09-30 00:00:00 18.2 5 Noroeste 13 Noroeste 0 939 0.2 64
2017-09-29 23:00:00 18.4 3 Este 14 Noroeste 0 938.8 0.3 59
2017-09-29 22:00:00 20.1 8 Noroeste 19 Noroeste 0 938.7 0.9 53
2017-09-29 21:00:00 21.4 6 Noroeste 12 Noroeste 0 938.8 1 35
2017-09-29 20:00:00 24.2 5 Oeste 23 Sudoeste 0 938.5 0.5 25
2017-09-29 19:00:00 26.6 11 Sudoeste 31 Sudoeste 0 937.8 -0.5 20
2017-09-29 18:00:00 26.9 8 Sudoeste 31 Oeste 0 937.8 -0.8 20
2017-09-29 17:00:00 28.1 14 Sudoeste 33 Sudoeste 0 938 -1.4 18
2017-09-29 16:00:00 27.7 14 Oeste 34 Sudoeste 0 938.3 -1.9 24
2017-09-29 15:00:00 27.1 12 Sudoeste 33 Oeste 0 938.6 -2.2 27
2017-09-29 14:00:00 25.3 8 Sur 22 Sudoeste 0 939.4 -1.8 30
2017-09-29 13:00:00 23.6 5 Sudeste 13 Sudoeste 0 940.2 -0.9 33
2017-09-29 12:00:00 20.4 3 Sur 9 Nordeste 0 940.8 0 38
2017-09-29 11:00:00 17 4 Este 11 Nordeste 0 941.2 0.8 46
2017-09-29 10:00:00 13.7 4 Nordeste 8 Nordeste 0 941.1 1 56
2017-09-29 09:00:00 10 0 Calma 4 Nordeste 0 940.8 1 67
2017-09-29 08:00:00 10.3 2 Norte 10 Norte 0 940.4 0.7 65
2017-09-29 07:00:00 10 0 Calma 13 Noroeste 0 940.1 0.2 63
2017-09-29 06:00:00 10.6 0 Calma 3 Nordeste 0 939.8 -0.5 61
2017-09-29 05:00:00 11.1 3 Norte 7 Norte 0 939.7 -0.6 57
2017-09-29 04:00:00 12.2 3 Nordeste 9 Este 0 939.9 -0.3 56
2017-09-29 03:00:00 14 2 Nordeste 18 Oeste 0 940.3 0.3 52
2017-09-29 02:00:00 15.1 4 Oeste 12 Noroeste 0 940.3 0.4 43
2017-09-29 01:00:00 14.5 2 Noroeste 7 Nordeste 0 940.2 0.5 44
2017-09-29 00:00:00 14.4 2 Noroeste 3 Oeste 0 940 0.7 47
2017-09-28 23:00:00 15.9 0 Calma 5 Oeste 0 939.9 1 49
2017-09-28 22:00:00 19.1 5 Noroeste 10 Noroeste 0 939.7 1 34
2017-09-28 21:00:00 21.7 4 Oeste 11 Sudoeste 0 939.3 0.7 28
2017-09-28 20:00:00 25.5 4 Sudoeste 14 Sudoeste 0 938.9 0 20
2017-09-28 19:00:00 27.8 7 Sudoeste 24 Sur 0 938.7 -0.7 17
2017-09-28 18:00:00 28 11 Sur 27 Sudoeste 0 938.6 -1.4 15
2017-09-28 17:00:00 28 12 Sur 27 Sur 0 938.9 -1.8 18
2017-09-28 16:00:00 27.6 10 Sur 29 Sur 0 939.4 -1.9 17
2017-09-28 15:00:00 26.7 8 Sur 23 Sudoeste 0 940 -1.5 21
2017-09-28 14:00:00 25.1 8 Sur 18 Sudoeste 0 940.7 -1 27
2017-09-28 13:00:00 22.8 5 Sudoeste 17 Sudoeste 0 941.3 -0.3 34
2017-09-28 12:00:00 20 3 Sur 9 Nordeste 0 941.5 0.5 36
2017-09-28 11:00:00 16 5 Este 10 Este 0 941.7 1.3 47
2017-09-28 10:00:00 12.9 4 Norte 8 Norte 0 941.6 1.5 57
2017-09-28 09:00:00 9.1 4 Nordeste 8 Norte 0 941 1.4 71
2017-09-28 08:00:00 7.9 4 Norte 6 Norte 0 940.4 0.9 72
2017-09-28 07:00:00 9.4 4 Nordeste 8 Norte 0 940.1 0.3 65
2017-09-28 06:00:00 9.7 2 Este 6 Nordeste 0 939.6 -0.2 60
2017-09-28 05:00:00 10.3 2 Nordeste 6 Norte 0 939.5 0.4 59
2017-09-28 04:00:00 11.3 0 Calma 7 Sudoeste 0 939.8 0.8 55
2017-09-28 03:00:00 12.9 4 Sudoeste 6 Sur 0 939.8 0.7 50
2017-09-28 02:00:00 12.7 2 Norte 19 Noroeste 0 939.1 0.6 54
2017-09-28 01:00:00 16.1 8 Noroeste 15 Noroeste 0 939 0.9 35
2017-09-28 00:00:00 14 3 Sudoeste 14 Sur 0 939.1 1.6 55
2017-09-27 23:00:00 16.7 3 Sudeste 11 Oeste 0 938.5 1.4 44
2017-09-27 22:00:00 20.9 6 Oeste 14 Oeste 0 938.1 1.4 23
2017-09-27 21:00:00 22.5 6 Oeste 14 Sudoeste 0 937.5 1.1 20
2017-09-27 20:00:00 24.5 6 Sudoeste 19 Sudoeste 0 937.1 0.6 19
2017-09-27 19:00:00 27.1 7 Oeste 19 Oeste 0 936.7 -0.2 14
2017-09-27 18:00:00 27.8 8 Oeste 30 Sudoeste 0 936.4 -1 15
2017-09-27 17:00:00 27.8 7 Sur 25 Sur 0 936.5 -1.5 17
2017-09-27 16:00:00 26.9 9 Sudoeste 26 Sur 0 936.9 -1.6 19
2017-09-27 15:00:00 25.9 10 Sudoeste 22 Sudoeste 0 937.4 -1.4 23
2017-09-27 14:00:00 23.9 7 Sur 17 Sur 0 938 -0.7 28
2017-09-27 13:00:00 21.7 2 Noroeste 11 Sudeste 0 938.5 -0.1 33
2017-09-27 12:00:00 18.7 3 Sudeste 9 Sudeste 0 938.8 0.3 41
2017-09-27 11:00:00 15.3 3 Nordeste 10 Norte 0 938.7 0.7 51
2017-09-27 10:00:00 11.7 5 Nordeste 11 Nordeste -- 938.6 0.8 65
2017-09-27 09:00:00 8 3 Nordeste 11 Norte 0 938.5 0.7 79
2017-09-27 08:00:00 7 2 Norte 7 Norte 0 938 0.1 80
2017-09-27 07:00:00 7.4 3 Norte 5 Nordeste 0 937.8 0.1 79
2017-09-27 06:00:00 8.1 0 Calma 9 Norte 0 937.8 0.1 78
2017-09-27 05:00:00 10.2 6 Norte 13 Norte 0 937.9 0.3 72
2017-09-27 04:00:00 9.7 4 Este 10 Noroeste 0 937.7 0 71
2017-09-27 03:00:00 10.9 4 Noroeste 8 Norte 0 937.7 -0.1 67
2017-09-27 02:00:00 11.3 4 Norte 8 Norte 0 937.6 -0.1 63
2017-09-27 01:00:00 11.7 3 Norte 6 Este 0 937.7 0.2 66
2017-09-27 00:00:00 14.9 0 Calma 8 Oeste 0 937.8 0.6 50
2017-09-26 23:00:00 14.1 2 Oeste 5 Norte 0 937.7 0.7 51
2017-09-26 22:00:00 15.3 3 Norte 5 Norte 0 937.5 0.7 50
2017-09-26 21:00:00 17.6 2 Nordeste 8 Sudeste 0 937.2 0.5 44
2017-09-26 20:00:00 22.4 4 Sudeste 10 Sudeste 0 937 0 29
2017-09-26 19:00:00 24.3 5 Sur 13 Sudeste 0 936.8 -0.8 26
2017-09-26 18:00:00 24.3 4 Sudeste 15 Sur 0 936.7 -1.5 25
2017-09-26 17:00:00 24.3 5 Sur 16 Sudoeste 0 937 -2 26
2017-09-26 16:00:00 23.4 5 Sudoeste 16 Sudoeste 0 937.6 -2.1 30
2017-09-26 15:00:00 22.2 4 Este 17 Sudoeste 0 938.2 -1.8 35
2017-09-26 14:00:00 21.2 4 Este 12 Sur 0 939 -1 40
2017-09-26 13:00:00 19.6 4 Nordeste 18 Este 0 939.7 -0.4 43
2017-09-26 12:00:00 17.4 9 Este 18 Nordeste 0 940 -0.1 54
2017-09-26 11:00:00 14.9 9 Nordeste 23 Nordeste 0 940 0.1 64
2017-09-26 10:00:00 11.9 10 Norte 19 Norte 0 940.1 0.2 74
2017-09-26 09:00:00 9.4 7 Norte 15 Norte 0 940.1 0.1 82
2017-09-26 08:00:00 8.6 5 Norte 15 Norte 0 939.9 -0.3 84
2017-09-26 07:00:00 9.4 8 Norte 13 Norte 0 939.9 -0.4 85
2017-09-26 06:00:00 10.5 8 Norte 12 Norte 0 940 -0.5 83
2017-09-26 05:00:00 10.6 4 Norte 9 Nordeste 0 940.2 -0.1 82
2017-09-26 04:00:00 11.3 5 Norte 12 Nordeste 0 940.3 0 80
2017-09-26 03:00:00 11.9 8 Nordeste 13 Nordeste 0 940.5 0.4 80
2017-09-26 02:00:00 12.6 7 Nordeste 16 Nordeste 0 940.3 0.6 77
2017-09-26 01:00:00 13.4 8 Nordeste 19 Nordeste 0 940.3 1.3 74
2017-09-26 00:00:00 14.4 9 Nordeste 20 Nordeste 0 940.1 1.2 70
2017-09-25 23:00:00 15.5 10 Nordeste 28 Norte 0 939.7 0.9 64
2017-09-25 22:00:00 17.9 12 Norte 24 Norte 0 939 0.5 40
2017-09-25 21:00:00 18 0 Calma 9 Nordeste 0 938.9 0.3 39
2017-09-25 20:00:00 20.9 6 Nordeste 15 Nordeste 0 938.8 0.1 33
2017-09-25 19:00:00 23.1 8 Norte 21 Norte 0 938.5 -0.6 27
2017-09-25 18:00:00 23.5 9 Norte 19 Norte 0 938.6 -1.1 27
2017-09-25 17:00:00 23.3 8 Norte 24 Noroeste 0 938.7 -1.2 25
2017-09-25 16:00:00 23.5 9 Noroeste 24 Norte 0 939.1 -1.1 26
2017-09-25 15:00:00 22.2 6 Norte 23 Noroeste 0 939.7 -0.4 30
2017-09-25 14:00:00 21.2 8 Norte 21 Noroeste 0 939.9 -0.3 33
2017-09-25 13:00:00 19.8 10 Noroeste 23 Norte 0 940.2 0.1 41
2017-09-25 12:00:00 19.2 9 Norte 26 Norte 0 940.1 0.5 46
2017-09-25 11:00:00 17.4 12 Noroeste 26 Noroeste 0 940.2 0.9 53
2017-09-25 10:00:00 14.5 5 Noroeste 17 Norte 0 940.1 1.2 69
2017-09-25 09:00:00 10.7 9 Noroeste 19 Noroeste 0 939.6 1.1 80
2017-09-25 08:00:00 10.7 5 Oeste 11 Noroeste 0 939.3 0.7 79
2017-09-25 07:00:00 11.4 4 Sudoeste 6 Sudoeste 0 938.9 0.2 75
2017-09-25 06:00:00 12.5 2 Sudeste 10 Oeste 0 938.5 0 71
2017-09-25 05:00:00 13.2 3 Noroeste 15 Noroeste 0 938.6 0.3 70
2017-09-25 04:00:00 14.5 7 Noroeste 17 Norte 0 938.7 0.4 75
2017-09-25 03:00:00 15.9 8 Noroeste 22 Noroeste 0 938.5 0.4 73
2017-09-25 02:00:00 17.2 4 Noroeste 14 Noroeste 0 938.3 0.4 66
2017-09-25 01:00:00 19.1 6 Oeste 17 Oeste 0 938.3 0.7 62
2017-09-25 00:00:00 20 8 Oeste 21 Oeste 0 938.1 1 55
2017-09-24 23:00:00 20.6 5 Sudoeste 21 Noroeste 0 937.9 1.2 38
2017-09-24 22:00:00 21.2 5 Noroeste 18 Oeste 0 937.6 1.1 22
2017-09-24 21:00:00 22.7 8 Sudoeste 21 Sudoeste 0 937.1 0.7 16
2017-09-24 20:00:00 24 11 Sudoeste 31 Sudoeste 0 936.7 0.1 15
2017-09-24 19:00:00 25.2 12 Sudoeste 28 Sudoeste 0 936.5 -0.2 13
2017-09-24 18:00:00 26.9 13 Sudoeste 32 Sudoeste 0 936.4 -0.8 12
2017-09-24 17:00:00 27.9 14 Oeste 36 Sudoeste 0 936.6 -1.2 10
2017-09-24 16:00:00 28.4 14 Oeste 33 Sudoeste 0 936.7 -1.9 9
2017-09-24 15:00:00 27.6 14 Sudoeste 35 Sudoeste 0 937.2 -1.8 8
2017-09-24 14:00:00 25.6 9 Sur 24 Sur 0 937.8 -1.4 23
2017-09-24 13:00:00 23.2 8 Sur 18 Sur 0 938.6 -0.5 32
2017-09-24 12:00:00 20.7 4 Sudeste 8 Sudoeste 0 939 0.5 38
2017-09-24 11:00:00 17 2 Sudoeste 6 Sur 0 939.2 0.9 48
2017-09-24 10:00:00 12.7 3 Norte 8 Este 0 939.1 1.3 66
2017-09-24 09:00:00 9.9 2 Nordeste 10 Norte 0 938.5 0.7 74
2017-09-24 08:00:00 9 4 Norte 7 Norte 0 938.3 0.3 76
2017-09-24 07:00:00 9.3 0 Calma 3 Este 0 937.8 -0.3 71
2017-09-24 06:00:00 10.1 0 Calma 4 Sudeste 0 937.8 -0.6 71
2017-09-24 05:00:00 11.6 3 Este 5 Sudeste 0 938 -0.2 63
2017-09-24 04:00:00 12.7 3 Sudoeste 7 Sur 0 938.1 0.1 60
2017-09-24 03:00:00 14.1 3 Sudoeste 9 Norte 0 938.4 0.7 57
2017-09-24 02:00:00 15.4 3 Sur 10 Oeste 0 938.2 0.6 50
2017-09-24 01:00:00 17.1 8 Noroeste 21 Noroeste 0 938 0.8 43
2017-09-24 00:00:00 17.9 6 Oeste 14 Oeste 0 937.7 0.8 39
2017-09-23 23:00:00 17.9 5 Oeste 9 Oeste 0 937.6 1 37
2017-09-23 22:00:00 20.2 5 Oeste 15 Sudoeste 0 937.2 1 33
2017-09-23 21:00:00 21.7 5 Oeste 16 Sudoeste 0 936.9 0.9 29
2017-09-23 20:00:00 23.5 5 Oeste 17 Oeste 0 936.6 0.6 25
2017-09-23 19:00:00 25.8 9 Oeste 25 Oeste 0 936.2 0 19
2017-09-23 18:00:00 27 12 Oeste 27 Noroeste 0 936 -1 17
2017-09-23 17:00:00 26.8 12 Sudoeste 30 Sudoeste 0 936 -1.6 21
2017-09-23 16:00:00 27.3 14 Sur 35 Sudoeste 0 936.2 -1.8 23
2017-09-23 15:00:00 25.2 12 Sudoeste 25 Sur 0 937 -1.3 31
2017-09-23 14:00:00 23.5 5 Sudoeste 14 Oeste 0 937.6 -0.7 38
2017-09-23 13:00:00 21.2 4 Sur 14 Norte 0 938 0.2 46
2017-09-23 12:00:00 18.4 5 Norte 18 Nordeste 0 938.3 0.8 56
2017-09-23 11:00:00 16.1 6 Nordeste 14 Nordeste 0 938.3 1.1 64
2017-09-23 10:00:00 13.6 7 Norte 16 Nordeste 0 937.8 1 73
2017-09-23 09:00:00 10.7 5 Norte 13 Norte 0 937.5 0.7 85
2017-09-23 08:00:00 10.4 4 Norte 11 Norte 0 937.2 0.1 85
2017-09-23 07:00:00 11.6 6 Norte 15 Nordeste 0 936.8 -0.4 83
2017-09-23 06:00:00 12.1 9 Norte 14 Norte 0 936.8 -0.7 83
2017-09-23 05:00:00 11.7 4 Nordeste 14 Norte 0 937.1 -0.2 82
2017-09-23 04:00:00 12.8 8 Norte 13 Norte 0 937.2 0 80
2017-09-23 03:00:00 13.8 7 Norte 12 Norte 0 937.5 0.2 76
2017-09-23 02:00:00 14.8 6 Norte 18 Nordeste 0 937.3 0.3 72
2017-09-23 01:00:00 15.7 8 Nordeste 23 Nordeste 0 937.2 0.5 68
2017-09-23 00:00:00 16.7 9 Nordeste 23 Este 0 937.3 0.9 65